sensor_id;sensor_type;location;lat;lon;timestamp;P1;durP1;ratioP1;P2;durP2;ratioP2
58760;SDS011;44529;47.464;19.014;2022-10-28T00:01:19;32.95;;;21.62;;
58760;SDS011;44529;47.464;19.014;2022-10-28T00:04:25;31.58;;;22.48;;
58760;SDS011;44529;47.464;19.014;2022-10-28T00:07:27;30.88;;;22.45;;
58760;SDS011;44529;47.464;19.014;2022-10-28T00:10:30;29.90;;;21.35;;
58760;SDS011;44529;47.464;19.014;2022-10-28T00:13:33;29.35;;;22.13;;
58760;SDS011;44529;47.464;19.014;2022-10-28T00:16:36;44.45;;;22.48;;
58760;SDS011;44529;47.464;19.014;2022-10-28T00:19:39;32.95;;;22.42;;
58760;SDS011;44529;47.464;19.014;2022-10-28T00:22:41;32.22;;;22.45;;
58760;SDS011;44529;47.464;19.014;2022-10-28T00:25:43;31.37;;;21.52;;
58760;SDS011;44529;47.464;19.014;2022-10-28T00:28:48;29.15;;;21.17;;
58760;SDS011;44529;47.464;19.014;2022-10-28T00:31:51;32.17;;;21.52;;
58760;SDS011;44529;47.464;19.014;2022-10-28T00:34:54;31.42;;;22.30;;
58760;SDS011;44529;47.464;19.014;2022-10-28T00:37:56;31.20;;;21.62;;
58760;SDS011;44529;47.464;19.014;2022-10-28T00:40:58;28.05;;;21.17;;
58760;SDS011;44529;47.464;19.014;2022-10-28T00:44:02;30.58;;;21.75;;
58760;SDS011;44529;47.464;19.014;2022-10-28T00:47:32;29.33;;;20.42;;
58760;SDS011;44529;47.464;19.014;2022-10-28T00:50:57;29.67;;;21.08;;
58760;SDS011;44529;47.464;19.014;2022-10-28T00:54:00;31.55;;;21.42;;
58760;SDS011;44529;47.464;19.014;2022-10-28T00:57:07;29.58;;;21.10;;
58760;SDS011;44529;47.464;19.014;2022-10-28T01:00:13;28.77;;;20.95;;
58760;SDS011;44529;47.464;19.014;2022-10-28T01:03:16;32.80;;;22.02;;
58760;SDS011;44529;47.464;19.014;2022-10-28T01:06:18;30.17;;;20.92;;
58760;SDS011;44529;47.464;19.014;2022-10-28T01:09:21;29.98;;;20.67;;
58760;SDS011;44529;47.464;19.014;2022-10-28T01:15:50;32.65;;;22.35;;
58760;SDS011;44529;47.464;19.014;2022-10-28T01:25:20;30.52;;;20.67;;
58760;SDS011;44529;47.464;19.014;2022-10-28T01:32:00;30.60;;;21.25;;
58760;SDS011;44529;47.464;19.014;2022-10-28T01:35:21;30.23;;;20.52;;
58760;SDS011;44529;47.464;19.014;2022-10-28T01:38:40;28.10;;;19.73;;
58760;SDS011;44529;47.464;19.014;2022-10-28T01:41:53;29.17;;;19.92;;
58760;SDS011;44529;47.464;19.014;2022-10-28T01:52:12;29.63;;;20.85;;
58760;SDS011;44529;47.464;19.014;2022-10-28T01:55:19;31.58;;;21.37;;
58760;SDS011;44529;47.464;19.014;2022-10-28T01:58:26;30.55;;;22.17;;
58760;SDS011;44529;47.464;19.014;2022-10-28T02:01:31;33.45;;;21.42;;
58760;SDS011;44529;47.464;19.014;2022-10-28T02:04:35;35.08;;;22.25;;
58760;SDS011;44529;47.464;19.014;2022-10-28T02:07:37;32.65;;;21.40;;
58760;SDS011;44529;47.464;19.014;2022-10-28T02:10:41;31.77;;;22.23;;
58760;SDS011;44529;47.464;19.014;2022-10-28T02:17:18;29.40;;;20.45;;
58760;SDS011;44529;47.464;19.014;2022-10-28T02:20:54;31.55;;;21.70;;
58760;SDS011;44529;47.464;19.014;2022-10-28T02:27:12;32.95;;;20.73;;
58760;SDS011;44529;47.464;19.014;2022-10-28T02:30:18;31.87;;;21.83;;
58760;SDS011;44529;47.464;19.014;2022-10-28T02:33:24;30.70;;;21.80;;
58760;SDS011;44529;47.464;19.014;2022-10-28T02:36:31;33.03;;;22.08;;
58760;SDS011;44529;47.464;19.014;2022-10-28T02:39:42;34.10;;;22.17;;
58760;SDS011;44529;47.464;19.014;2022-10-28T02:42:48;32.88;;;21.75;;
58760;SDS011;44529;47.464;19.014;2022-10-28T02:45:54;32.17;;;21.35;;
58760;SDS011;44529;47.464;19.014;2022-10-28T02:49:04;33.30;;;22.15;;
58760;SDS011;44529;47.464;19.014;2022-10-28T02:52:09;32.53;;;22.85;;
58760;SDS011;44529;47.464;19.014;2022-10-28T02:55:12;31.80;;;22.35;;
58760;SDS011;44529;47.464;19.014;2022-10-28T02:58:14;30.10;;;21.92;;
58760;SDS011;44529;47.464;19.014;2022-10-28T03:01:17;34.17;;;22.48;;
58760;SDS011;44529;47.464;19.014;2022-10-28T03:04:19;32.72;;;22.98;;
58760;SDS011;44529;47.464;19.014;2022-10-28T03:07:22;34.35;;;22.52;;
58760;SDS011;44529;47.464;19.014;2022-10-28T03:10:24;32.70;;;23.62;;
58760;SDS011;44529;47.464;19.014;2022-10-28T03:13:27;32.05;;;22.37;;
58760;SDS011;44529;47.464;19.014;2022-10-28T03:16:29;35.72;;;24.77;;
58760;SDS011;44529;47.464;19.014;2022-10-28T03:19:31;36.95;;;23.62;;
58760;SDS011;44529;47.464;19.014;2022-10-28T03:22:34;35.45;;;23.77;;
58760;SDS011;44529;47.464;19.014;2022-10-28T03:25:36;33.53;;;24.27;;
58760;SDS011;44529;47.464;19.014;2022-10-28T03:28:38;38.42;;;24.70;;
58760;SDS011;44529;47.464;19.014;2022-10-28T03:31:40;34.90;;;24.75;;
58760;SDS011;44529;47.464;19.014;2022-10-28T03:34:43;33.92;;;23.35;;
58760;SDS011;44529;47.464;19.014;2022-10-28T03:37:45;32.72;;;23.15;;
58760;SDS011;44529;47.464;19.014;2022-10-28T03:40:47;34.92;;;23.85;;
58760;SDS011;44529;47.464;19.014;2022-10-28T03:43:53;31.87;;;23.45;;
58760;SDS011;44529;47.464;19.014;2022-10-28T03:46:55;31.73;;;23.50;;
58760;SDS011;44529;47.464;19.014;2022-10-28T03:49:57;38.60;;;24.55;;
58760;SDS011;44529;47.464;19.014;2022-10-28T03:52:59;36.75;;;25.58;;
58760;SDS011;44529;47.464;19.014;2022-10-28T03:56:02;36.88;;;25.05;;
58760;SDS011;44529;47.464;19.014;2022-10-28T03:59:07;37.22;;;25.75;;
58760;SDS011;44529;47.464;19.014;2022-10-28T04:02:10;36.03;;;25.05;;
58760;SDS011;44529;47.464;19.014;2022-10-28T04:05:14;37.38;;;26.77;;
58760;SDS011;44529;47.464;19.014;2022-10-28T04:08:16;38.50;;;25.45;;
58760;SDS011;44529;47.464;19.014;2022-10-28T04:11:19;38.80;;;25.85;;
58760;SDS011;44529;47.464;19.014;2022-10-28T04:14:21;41.80;;;25.62;;
58760;SDS011;44529;47.464;19.014;2022-10-28T04:17:24;35.00;;;25.27;;
58760;SDS011;44529;47.464;19.014;2022-10-28T04:20:26;38.97;;;25.58;;
58760;SDS011;44529;47.464;19.014;2022-10-28T04:23:29;39.05;;;26.83;;
58760;SDS011;44529;47.464;19.014;2022-10-28T04:26:31;41.00;;;25.60;;
58760;SDS011;44529;47.464;19.014;2022-10-28T04:29:33;40.33;;;27.42;;
58760;SDS011;44529;47.464;19.014;2022-10-28T04:32:36;41.78;;;26.45;;
58760;SDS011;44529;47.464;19.014;2022-10-28T04:35:39;44.58;;;27.95;;
58760;SDS011;44529;47.464;19.014;2022-10-28T04:38:43;41.13;;;26.62;;
58760;SDS011;44529;47.464;19.014;2022-10-28T04:41:45;43.85;;;27.90;;
58760;SDS011;44529;47.464;19.014;2022-10-28T04:44:48;44.38;;;28.60;;
58760;SDS011;44529;47.464;19.014;2022-10-28T04:47:55;45.38;;;29.55;;
58760;SDS011;44529;47.464;19.014;2022-10-28T04:51:00;46.28;;;28.60;;
58760;SDS011;44529;47.464;19.014;2022-10-28T04:54:03;46.75;;;28.40;;
58760;SDS011;44529;47.464;19.014;2022-10-28T04:57:05;44.83;;;28.58;;
58760;SDS011;44529;47.464;19.014;2022-10-28T05:00:07;49.83;;;29.52;;
58760;SDS011;44529;47.464;19.014;2022-10-28T05:03:12;54.78;;;30.08;;
58760;SDS011;44529;47.464;19.014;2022-10-28T05:06:14;53.80;;;29.20;;
58760;SDS011;44529;47.464;19.014;2022-10-28T05:09:16;54.88;;;29.02;;
58760;SDS011;44529;47.464;19.014;2022-10-28T05:12:19;58.28;;;29.25;;
58760;SDS011;44529;47.464;19.014;2022-10-28T05:15:21;61.60;;;29.85;;
58760;SDS011;44529;47.464;19.014;2022-10-28T05:18:23;57.10;;;27.75;;
58760;SDS011;44529;47.464;19.014;2022-10-28T05:21:25;54.30;;;28.42;;
58760;SDS011;44529;47.464;19.014;2022-10-28T05:24:28;56.22;;;27.02;;
58760;SDS011;44529;47.464;19.014;2022-10-28T05:27:30;53.63;;;25.33;;
58760;SDS011;44529;47.464;19.014;2022-10-28T05:30:32;58.87;;;26.80;;
58760;SDS011;44529;47.464;19.014;2022-10-28T05:33:34;56.53;;;25.90;;
58760;SDS011;44529;47.464;19.014;2022-10-28T05:36:37;50.60;;;25.10;;
58760;SDS011;44529;47.464;19.014;2022-10-28T05:39:39;51.55;;;24.67;;
58760;SDS011;44529;47.464;19.014;2022-10-28T05:42:41;55.63;;;27.87;;
58760;SDS011;44529;47.464;19.014;2022-10-28T05:45:54;50.15;;;24.23;;
58760;SDS011;44529;47.464;19.014;2022-10-28T05:48:58;53.80;;;25.30;;
58760;SDS011;44529;47.464;19.014;2022-10-28T05:52:00;48.10;;;23.70;;
58760;SDS011;44529;47.464;19.014;2022-10-28T05:55:03;54.65;;;25.48;;
58760;SDS011;44529;47.464;19.014;2022-10-28T05:58:06;52.90;;;22.70;;
58760;SDS011;44529;47.464;19.014;2022-10-28T06:01:08;46.15;;;22.75;;
58760;SDS011;44529;47.464;19.014;2022-10-28T06:04:11;51.37;;;23.00;;
58760;SDS011;44529;47.464;19.014;2022-10-28T06:07:13;47.75;;;21.65;;
58760;SDS011;44529;47.464;19.014;2022-10-28T06:10:15;47.25;;;22.37;;
58760;SDS011;44529;47.464;19.014;2022-10-28T06:13:18;45.10;;;21.20;;
58760;SDS011;44529;47.464;19.014;2022-10-28T06:16:20;45.72;;;21.75;;
58760;SDS011;44529;47.464;19.014;2022-10-28T06:19:22;43.70;;;21.37;;
58760;SDS011;44529;47.464;19.014;2022-10-28T06:22:25;48.20;;;21.45;;
58760;SDS011;44529;47.464;19.014;2022-10-28T06:25:27;44.72;;;20.65;;
58760;SDS011;44529;47.464;19.014;2022-10-28T06:28:30;40.83;;;20.60;;
58760;SDS011;44529;47.464;19.014;2022-10-28T06:31:32;41.45;;;19.73;;
58760;SDS011;44529;47.464;19.014;2022-10-28T06:34:35;45.10;;;20.98;;
58760;SDS011;44529;47.464;19.014;2022-10-28T06:37:37;40.88;;;19.60;;
58760;SDS011;44529;47.464;19.014;2022-10-28T06:40:39;43.28;;;19.75;;
58760;SDS011;44529;47.464;19.014;2022-10-28T06:43:41;41.85;;;19.48;;
58760;SDS011;44529;47.464;19.014;2022-10-28T06:46:44;39.20;;;19.05;;
58760;SDS011;44529;47.464;19.014;2022-10-28T06:49:46;41.22;;;18.37;;
58760;SDS011;44529;47.464;19.014;2022-10-28T06:52:49;37.55;;;19.33;;
58760;SDS011;44529;47.464;19.014;2022-10-28T06:55:54;44.83;;;19.02;;
58760;SDS011;44529;47.464;19.014;2022-10-28T06:58:58;38.88;;;18.05;;
58760;SDS011;44529;47.464;19.014;2022-10-28T07:02:00;33.67;;;17.92;;
58760;SDS011;44529;47.464;19.014;2022-10-28T07:05:03;37.92;;;19.37;;
58760;SDS011;44529;47.464;19.014;2022-10-28T07:08:05;38.15;;;19.42;;
58760;SDS011;44529;47.464;19.014;2022-10-28T07:11:07;40.72;;;19.73;;
58760;SDS011;44529;47.464;19.014;2022-10-28T07:14:09;43.05;;;20.90;;
58760;SDS011;44529;47.464;19.014;2022-10-28T07:17:12;37.67;;;18.62;;
58760;SDS011;44529;47.464;19.014;2022-10-28T07:20:14;37.65;;;18.48;;
58760;SDS011;44529;47.464;19.014;2022-10-28T07:23:16;39.75;;;20.12;;
58760;SDS011;44529;47.464;19.014;2022-10-28T07:26:19;38.17;;;18.05;;
58760;SDS011;44529;47.464;19.014;2022-10-28T07:29:22;41.10;;;20.37;;
58760;SDS011;44529;47.464;19.014;2022-10-28T07:32:24;44.83;;;19.90;;
58760;SDS011;44529;47.464;19.014;2022-10-28T07:35:27;38.85;;;19.58;;
58760;SDS011;44529;47.464;19.014;2022-10-28T07:38:29;40.83;;;19.80;;
58760;SDS011;44529;47.464;19.014;2022-10-28T07:41:31;39.72;;;20.75;;
58760;SDS011;44529;47.464;19.014;2022-10-28T07:44:34;39.08;;;19.17;;
58760;SDS011;44529;47.464;19.014;2022-10-28T07:47:36;40.42;;;19.90;;
58760;SDS011;44529;47.464;19.014;2022-10-28T07:50:39;37.08;;;19.00;;
58760;SDS011;44529;47.464;19.014;2022-10-28T07:53:42;40.10;;;18.55;;
58760;SDS011;44529;47.464;19.014;2022-10-28T07:56:44;38.00;;;19.42;;
58760;SDS011;44529;47.464;19.014;2022-10-28T07:59:47;38.55;;;19.50;;
58760;SDS011;44529;47.464;19.014;2022-10-28T08:02:49;38.22;;;19.35;;
58760;SDS011;44529;47.464;19.014;2022-10-28T08:05:58;40.30;;;18.23;;
58760;SDS011;44529;47.464;19.014;2022-10-28T08:09:01;35.17;;;17.87;;
58760;SDS011;44529;47.464;19.014;2022-10-28T08:12:03;35.03;;;18.25;;
58760;SDS011;44529;47.464;19.014;2022-10-28T08:15:06;32.15;;;18.33;;
58760;SDS011;44529;47.464;19.014;2022-10-28T08:18:11;35.30;;;19.02;;
58760;SDS011;44529;47.464;19.014;2022-10-28T08:21:13;35.88;;;17.62;;
58760;SDS011;44529;47.464;19.014;2022-10-28T08:24:16;30.95;;;18.05;;
58760;SDS011;44529;47.464;19.014;2022-10-28T08:27:18;36.33;;;18.75;;
58760;SDS011;44529;47.464;19.014;2022-10-28T08:30:21;36.95;;;18.67;;
58760;SDS011;44529;47.464;19.014;2022-10-28T08:33:23;31.12;;;18.33;;
58760;SDS011;44529;47.464;19.014;2022-10-28T08:36:25;37.05;;;18.65;;
58760;SDS011;44529;47.464;19.014;2022-10-28T08:39:27;33.22;;;17.48;;
58760;SDS011;44529;47.464;19.014;2022-10-28T08:42:38;35.60;;;17.83;;
58760;SDS011;44529;47.464;19.014;2022-10-28T08:49:08;37.55;;;18.75;;
58760;SDS011;44529;47.464;19.014;2022-10-28T08:52:17;33.63;;;17.27;;
58760;SDS011;44529;47.464;19.014;2022-10-28T08:58:34;31.00;;;17.60;;
58760;SDS011;44529;47.464;19.014;2022-10-28T09:01:46;31.00;;;16.67;;
58760;SDS011;44529;47.464;19.014;2022-10-28T09:05:01;32.70;;;18.03;;
58760;SDS011;44529;47.464;19.014;2022-10-28T09:08:19;33.25;;;16.80;;
58760;SDS011;44529;47.464;19.014;2022-10-28T09:17:52;32.08;;;16.58;;
58760;SDS011;44529;47.464;19.014;2022-10-28T09:21:23;30.73;;;16.95;;
58760;SDS011;44529;47.464;19.014;2022-10-28T09:24:52;31.33;;;17.85;;
58760;SDS011;44529;47.464;19.014;2022-10-28T09:28:01;30.12;;;16.67;;
58760;SDS011;44529;47.464;19.014;2022-10-28T09:34:43;30.42;;;16.23;;
58760;SDS011;44529;47.464;19.014;2022-10-28T09:38:01;32.67;;;16.85;;
58760;SDS011;44529;47.464;19.014;2022-10-28T09:41:22;33.85;;;18.75;;
58760;SDS011;44529;47.464;19.014;2022-10-28T09:44:41;30.37;;;18.87;;
58760;SDS011;44529;47.464;19.014;2022-10-28T09:47:57;30.15;;;19.80;;
58760;SDS011;44529;47.464;19.014;2022-10-28T09:51:09;33.42;;;20.42;;
58760;SDS011;44529;47.464;19.014;2022-10-28T09:54:26;33.40;;;19.02;;
58760;SDS011;44529;47.464;19.014;2022-10-28T09:57:35;30.48;;;18.77;;
58760;SDS011;44529;47.464;19.014;2022-10-28T10:00:37;31.83;;;18.77;;
58760;SDS011;44529;47.464;19.014;2022-10-28T10:03:40;30.02;;;17.62;;
58760;SDS011;44529;47.464;19.014;2022-10-28T10:06:44;28.77;;;17.75;;
58760;SDS011;44529;47.464;19.014;2022-10-28T10:09:49;29.35;;;18.37;;
58760;SDS011;44529;47.464;19.014;2022-10-28T10:12:52;28.25;;;17.67;;
58760;SDS011;44529;47.464;19.014;2022-10-28T10:26:29;27.80;;;17.50;;
58760;SDS011;44529;47.464;19.014;2022-10-28T10:29:33;23.55;;;15.57;;
58760;SDS011;44529;47.464;19.014;2022-10-28T10:32:36;26.77;;;16.87;;
58760;SDS011;44529;47.464;19.014;2022-10-28T10:35:39;26.12;;;17.15;;
58760;SDS011;44529;47.464;19.014;2022-10-28T10:42:22;24.02;;;15.73;;
58760;SDS011;44529;47.464;19.014;2022-10-28T10:45:26;24.30;;;16.23;;
58760;SDS011;44529;47.464;19.014;2022-10-28T10:48:29;23.80;;;15.23;;
58760;SDS011;44529;47.464;19.014;2022-10-28T10:51:33;27.67;;;15.95;;
58760;SDS011;44529;47.464;19.014;2022-10-28T10:54:41;24.20;;;16.33;;
58760;SDS011;44529;47.464;19.014;2022-10-28T10:57:48;27.40;;;15.95;;
58760;SDS011;44529;47.464;19.014;2022-10-28T11:00:52;25.17;;;16.75;;
58760;SDS011;44529;47.464;19.014;2022-10-28T11:04:00;27.08;;;16.77;;
58760;SDS011;44529;47.464;19.014;2022-10-28T11:07:11;26.23;;;17.42;;
58760;SDS011;44529;47.464;19.014;2022-10-28T11:13:24;25.88;;;15.13;;
58760;SDS011;44529;47.464;19.014;2022-10-28T11:16:27;23.35;;;15.65;;
58760;SDS011;44529;47.464;19.014;2022-10-28T11:19:33;25.02;;;16.35;;
58760;SDS011;44529;47.464;19.014;2022-10-28T11:22:49;27.05;;;16.50;;
58760;SDS011;44529;47.464;19.014;2022-10-28T11:26:13;22.10;;;15.70;;
58760;SDS011;44529;47.464;19.014;2022-10-28T11:29:17;23.85;;;16.52;;
58760;SDS011;44529;47.464;19.014;2022-10-28T11:36:14;27.90;;;18.08;;
58760;SDS011;44529;47.464;19.014;2022-10-28T11:56:20;26.98;;;16.85;;
58760;SDS011;44529;47.464;19.014;2022-10-28T11:59:39;29.00;;;16.58;;
58760;SDS011;44529;47.464;19.014;2022-10-28T12:06:39;24.00;;;16.42;;
58760;SDS011;44529;47.464;19.014;2022-10-28T12:10:11;24.55;;;16.80;;
58760;SDS011;44529;47.464;19.014;2022-10-28T12:20:44;24.27;;;17.50;;
58760;SDS011;44529;47.464;19.014;2022-10-28T12:26:41;25.52;;;17.73;;
58760;SDS011;44529;47.464;19.014;2022-10-28T12:29:48;28.10;;;18.00;;
58760;SDS011;44529;47.464;19.014;2022-10-28T12:32:55;28.73;;;18.35;;
58760;SDS011;44529;47.464;19.014;2022-10-28T12:46:41;30.52;;;18.75;;
58760;SDS011;44529;47.464;19.014;2022-10-28T12:50:16;26.20;;;18.67;;
58760;SDS011;44529;47.464;19.014;2022-10-28T12:53:35;31.62;;;18.73;;
58760;SDS011;44529;47.464;19.014;2022-10-28T12:56:48;28.45;;;18.15;;
58760;SDS011;44529;47.464;19.014;2022-10-28T12:59:58;25.77;;;17.55;;
58760;SDS011;44529;47.464;19.014;2022-10-28T13:03:06;25.75;;;18.20;;
58760;SDS011;44529;47.464;19.014;2022-10-28T13:06:30;27.42;;;17.87;;
58760;SDS011;44529;47.464;19.014;2022-10-28T13:09:44;28.00;;;17.83;;
58760;SDS011;44529;47.464;19.014;2022-10-28T13:23:10;28.60;;;18.65;;
58760;SDS011;44529;47.464;19.014;2022-10-28T13:29:27;33.45;;;19.75;;
58760;SDS011;44529;47.464;19.014;2022-10-28T13:32:36;29.02;;;18.00;;
58760;SDS011;44529;47.464;19.014;2022-10-28T13:35:40;30.75;;;20.88;;
58760;SDS011;44529;47.464;19.014;2022-10-28T13:38:47;30.90;;;19.62;;
58760;SDS011;44529;47.464;19.014;2022-10-28T13:52:27;33.80;;;18.83;;
58760;SDS011;44529;47.464;19.014;2022-10-28T13:58:39;34.20;;;19.50;;
58760;SDS011;44529;47.464;19.014;2022-10-28T14:02:01;37.38;;;20.48;;
58760;SDS011;44529;47.464;19.014;2022-10-28T14:08:38;38.53;;;21.42;;
58760;SDS011;44529;47.464;19.014;2022-10-28T14:11:42;35.30;;;21.40;;
58760;SDS011;44529;47.464;19.014;2022-10-28T14:18:03;35.55;;;20.17;;
58760;SDS011;44529;47.464;19.014;2022-10-28T14:21:23;35.72;;;21.00;;
58760;SDS011;44529;47.464;19.014;2022-10-28T14:24:30;39.97;;;22.05;;
58760;SDS011;44529;47.464;19.014;2022-10-28T14:27:40;35.85;;;21.65;;
58760;SDS011;44529;47.464;19.014;2022-10-28T14:31:16;39.55;;;21.90;;
58760;SDS011;44529;47.464;19.014;2022-10-28T14:37:18;39.08;;;22.00;;
58760;SDS011;44529;47.464;19.014;2022-10-28T14:40:33;35.60;;;20.70;;
58760;SDS011;44529;47.464;19.014;2022-10-28T14:43:54;43.42;;;24.60;;
58760;SDS011;44529;47.464;19.014;2022-10-28T14:47:28;38.83;;;22.60;;
58760;SDS011;44529;47.464;19.014;2022-10-28T14:50:43;37.20;;;21.65;;
58760;SDS011;44529;47.464;19.014;2022-10-28T14:53:48;37.03;;;22.10;;
58760;SDS011;44529;47.464;19.014;2022-10-28T14:56:55;33.63;;;21.40;;
58760;SDS011;44529;47.464;19.014;2022-10-28T15:00:03;33.33;;;20.55;;
58760;SDS011;44529;47.464;19.014;2022-10-28T15:03:08;33.70;;;20.17;;
58760;SDS011;44529;47.464;19.014;2022-10-28T15:06:22;32.72;;;19.83;;
58760;SDS011;44529;47.464;19.014;2022-10-28T15:09:29;33.05;;;19.62;;
58760;SDS011;44529;47.464;19.014;2022-10-28T15:12:33;36.15;;;20.23;;
58760;SDS011;44529;47.464;19.014;2022-10-28T15:15:35;31.23;;;18.23;;
58760;SDS011;44529;47.464;19.014;2022-10-28T15:18:37;28.38;;;17.98;;
58760;SDS011;44529;47.464;19.014;2022-10-28T15:22:01;33.72;;;20.42;;
58760;SDS011;44529;47.464;19.014;2022-10-28T15:25:17;32.97;;;20.20;;
58760;SDS011;44529;47.464;19.014;2022-10-28T15:28:23;39.50;;;22.08;;
58760;SDS011;44529;47.464;19.014;2022-10-28T15:31:25;33.63;;;20.50;;
58760;SDS011;44529;47.464;19.014;2022-10-28T15:34:28;39.75;;;21.90;;
58760;SDS011;44529;47.464;19.014;2022-10-28T15:37:30;35.65;;;21.15;;
58760;SDS011;44529;47.464;19.014;2022-10-28T15:40:37;39.05;;;21.52;;
58760;SDS011;44529;47.464;19.014;2022-10-28T15:43:39;38.20;;;21.77;;
58760;SDS011;44529;47.464;19.014;2022-10-28T15:46:42;40.08;;;22.67;;
58760;SDS011;44529;47.464;19.014;2022-10-28T15:49:58;34.45;;;22.10;;
58760;SDS011;44529;47.464;19.014;2022-10-28T15:56:18;35.85;;;20.33;;
58760;SDS011;44529;47.464;19.014;2022-10-28T15:59:21;33.25;;;20.35;;
58760;SDS011;44529;47.464;19.014;2022-10-28T16:02:37;34.85;;;20.33;;
58760;SDS011;44529;47.464;19.014;2022-10-28T16:05:43;34.13;;;20.23;;
58760;SDS011;44529;47.464;19.014;2022-10-28T16:08:46;32.63;;;20.17;;
58760;SDS011;44529;47.464;19.014;2022-10-28T16:11:59;37.22;;;21.35;;
58760;SDS011;44529;47.464;19.014;2022-10-28T16:15:04;34.65;;;20.52;;
58760;SDS011;44529;47.464;19.014;2022-10-28T16:18:07;33.88;;;21.25;;
58760;SDS011;44529;47.464;19.014;2022-10-28T16:21:14;32.10;;;20.52;;
58760;SDS011;44529;47.464;19.014;2022-10-28T16:24:26;37.28;;;21.73;;
58760;SDS011;44529;47.464;19.014;2022-10-28T16:27:29;37.72;;;22.13;;
58760;SDS011;44529;47.464;19.014;2022-10-28T16:30:32;37.10;;;21.60;;
58760;SDS011;44529;47.464;19.014;2022-10-28T16:33:35;35.45;;;21.83;;
58760;SDS011;44529;47.464;19.014;2022-10-28T16:36:39;36.22;;;22.30;;
58760;SDS011;44529;47.464;19.014;2022-10-28T16:39:41;43.58;;;21.80;;
58760;SDS011;44529;47.464;19.014;2022-10-28T16:42:44;41.08;;;22.48;;
58760;SDS011;44529;47.464;19.014;2022-10-28T16:45:47;35.45;;;21.08;;
58760;SDS011;44529;47.464;19.014;2022-10-28T16:48:50;40.67;;;22.00;;
58760;SDS011;44529;47.464;19.014;2022-10-28T16:51:52;37.55;;;21.58;;
58760;SDS011;44529;47.464;19.014;2022-10-28T16:54:55;35.17;;;21.85;;
58760;SDS011;44529;47.464;19.014;2022-10-28T16:57:58;41.75;;;23.60;;
58760;SDS011;44529;47.464;19.014;2022-10-28T17:01:00;40.33;;;22.90;;
58760;SDS011;44529;47.464;19.014;2022-10-28T17:04:03;38.30;;;22.45;;
58760;SDS011;44529;47.464;19.014;2022-10-28T17:07:05;40.83;;;23.15;;
58760;SDS011;44529;47.464;19.014;2022-10-28T17:10:08;44.97;;;23.95;;
58760;SDS011;44529;47.464;19.014;2022-10-28T17:13:11;38.95;;;23.70;;
58760;SDS011;44529;47.464;19.014;2022-10-28T17:16:14;37.88;;;23.20;;
58760;SDS011;44529;47.464;19.014;2022-10-28T17:19:16;42.50;;;24.15;;
58760;SDS011;44529;47.464;19.014;2022-10-28T17:22:19;41.92;;;24.15;;
58760;SDS011;44529;47.464;19.014;2022-10-28T17:25:21;41.50;;;23.00;;
58760;SDS011;44529;47.464;19.014;2022-10-28T17:28:23;40.42;;;23.48;;
58760;SDS011;44529;47.464;19.014;2022-10-28T17:31:25;44.85;;;24.63;;
58760;SDS011;44529;47.464;19.014;2022-10-28T17:34:28;37.92;;;23.50;;
58760;SDS011;44529;47.464;19.014;2022-10-28T17:37:30;40.50;;;23.40;;
58760;SDS011;44529;47.464;19.014;2022-10-28T17:40:33;40.47;;;23.48;;
58760;SDS011;44529;47.464;19.014;2022-10-28T17:43:36;39.95;;;23.12;;
58760;SDS011;44529;47.464;19.014;2022-10-28T17:46:38;39.10;;;22.67;;
58760;SDS011;44529;47.464;19.014;2022-10-28T17:49:40;41.13;;;22.87;;
58760;SDS011;44529;47.464;19.014;2022-10-28T17:52:42;40.17;;;23.38;;
58760;SDS011;44529;47.464;19.014;2022-10-28T17:55:45;36.70;;;22.90;;
58760;SDS011;44529;47.464;19.014;2022-10-28T17:58:56;37.50;;;22.67;;
58760;SDS011;44529;47.464;19.014;2022-10-28T18:01:58;41.42;;;23.38;;
58760;SDS011;44529;47.464;19.014;2022-10-28T18:05:01;35.70;;;21.80;;
58760;SDS011;44529;47.464;19.014;2022-10-28T18:08:03;39.38;;;22.67;;
58760;SDS011;44529;47.464;19.014;2022-10-28T18:11:06;36.58;;;23.02;;
58760;SDS011;44529;47.464;19.014;2022-10-28T18:14:09;42.62;;;23.95;;
58760;SDS011;44529;47.464;19.014;2022-10-28T18:17:12;39.05;;;24.52;;
58760;SDS011;44529;47.464;19.014;2022-10-28T18:20:15;44.72;;;25.17;;
58760;SDS011;44529;47.464;19.014;2022-10-28T18:23:17;36.50;;;23.30;;
58760;SDS011;44529;47.464;19.014;2022-10-28T18:26:19;44.08;;;24.87;;
58760;SDS011;44529;47.464;19.014;2022-10-28T18:29:22;44.75;;;25.27;;
58760;SDS011;44529;47.464;19.014;2022-10-28T18:32:25;43.75;;;24.67;;
58760;SDS011;44529;47.464;19.014;2022-10-28T18:35:27;39.38;;;24.23;;
58760;SDS011;44529;47.464;19.014;2022-10-28T18:38:30;44.92;;;24.55;;
58760;SDS011;44529;47.464;19.014;2022-10-28T18:41:34;44.20;;;24.70;;
58760;SDS011;44529;47.464;19.014;2022-10-28T18:44:42;42.28;;;25.40;;
58760;SDS011;44529;47.464;19.014;2022-10-28T18:47:44;43.05;;;23.92;;
58760;SDS011;44529;47.464;19.014;2022-10-28T18:50:55;46.45;;;24.55;;
58760;SDS011;44529;47.464;19.014;2022-10-28T18:53:59;40.97;;;23.40;;
58760;SDS011;44529;47.464;19.014;2022-10-28T18:57:01;45.03;;;25.10;;
58760;SDS011;44529;47.464;19.014;2022-10-28T19:00:03;47.90;;;26.45;;
58760;SDS011;44529;47.464;19.014;2022-10-28T19:03:20;44.20;;;26.80;;
58760;SDS011;44529;47.464;19.014;2022-10-28T19:06:24;48.85;;;27.58;;
58760;SDS011;44529;47.464;19.014;2022-10-28T19:09:27;49.10;;;27.83;;
58760;SDS011;44529;47.464;19.014;2022-10-28T19:12:29;53.20;;;27.70;;
58760;SDS011;44529;47.464;19.014;2022-10-28T19:15:31;51.53;;;28.30;;
58760;SDS011;44529;47.464;19.014;2022-10-28T19:18:35;57.67;;;29.73;;
58760;SDS011;44529;47.464;19.014;2022-10-28T19:21:39;53.78;;;28.35;;
58760;SDS011;44529;47.464;19.014;2022-10-28T19:24:41;55.28;;;29.25;;
58760;SDS011;44529;47.464;19.014;2022-10-28T19:27:43;54.88;;;28.77;;
58760;SDS011;44529;47.464;19.014;2022-10-28T19:30:46;57.60;;;29.50;;
58760;SDS011;44529;47.464;19.014;2022-10-28T19:33:48;56.15;;;29.50;;
58760;SDS011;44529;47.464;19.014;2022-10-28T19:36:50;55.40;;;29.90;;
58760;SDS011;44529;47.464;19.014;2022-10-28T19:39:52;59.20;;;30.12;;
58760;SDS011;44529;47.464;19.014;2022-10-28T19:42:57;54.85;;;30.73;;
58760;SDS011;44529;47.464;19.014;2022-10-28T19:49:11;68.30;;;31.02;;
58760;SDS011;44529;47.464;19.014;2022-10-28T19:52:13;58.50;;;30.62;;
58760;SDS011;44529;47.464;19.014;2022-10-28T19:55:15;56.37;;;30.05;;
58760;SDS011;44529;47.464;19.014;2022-10-28T19:58:19;61.50;;;30.83;;
58760;SDS011;44529;47.464;19.014;2022-10-28T20:01:22;57.85;;;31.45;;
58760;SDS011;44529;47.464;19.014;2022-10-28T20:04:25;59.95;;;31.65;;
58760;SDS011;44529;47.464;19.014;2022-10-28T20:07:27;58.83;;;31.35;;
58760;SDS011;44529;47.464;19.014;2022-10-28T20:10:30;65.47;;;31.70;;
58760;SDS011;44529;47.464;19.014;2022-10-28T20:13:32;63.55;;;32.75;;
58760;SDS011;44529;47.464;19.014;2022-10-28T20:16:36;63.60;;;31.52;;
58760;SDS011;44529;47.464;19.014;2022-10-28T20:19:39;64.45;;;31.27;;